Time;durP1;ratioP1;P1;durP2;ratioP2;P2;SDS_P1;SDS_P2;PMS_P1;PMS_P2;Temp;Humidity;BMP_temperature;BMP_pressure;BME280_temperature;BME280_humidity;BME280_pressure;Samples;Min_cycle;Max_cycle;Signal;HPM_P1;HPM_P2
2023/09/16 00:00:34;;;;;;;10.50;9.57;;;;;;;;;;5057744;28;20396;-84
2023/09/16 00:03:00;;;;;;;9.13;8.45;;;;;;;;;;5057688;28;20044;-84
2023/09/16 00:05:26;;;;;;;9.68;8.82;;;;;;;;;;5058703;28;20051;-84
2023/09/16 00:07:53;;;;;;;9.10;8.27;;;;;;;;;;5041577;28;20052;-84
2023/09/16 00:10:19;;;;;;;10.00;9.23;;;;;;;;;;5040760;28;20044;-84
2023/09/16 00:12:45;;;;;;;10.23;9.38;;;;;;;;;;5058088;28;20131;-84
2023/09/16 00:15:11;;;;;;;8.95;8.35;;;;;;;;;;5057477;28;20389;-84
2023/09/16 00:17:37;;;;;;;10.00;9.25;;;;;;;;;;5058226;28;20068;-84
2023/09/16 00:20:15;;;;;;;9.68;8.88;;;;;;;;;;5041479;28;20087;-84
2023/09/16 00:22:42;;;;;;;9.90;8.95;;;;;;;;;;5043048;28;20049;-84
2023/09/16 00:25:08;;;;;;;10.57;9.35;;;;;;;;;;5042334;28;20480;-84
2023/09/16 00:27:35;;;;;;;10.75;9.73;;;;;;;;;;5057775;28;20040;-84
2023/09/16 00:30:03;;;;;;;10.02;9.13;;;;;;;;;;5058150;28;20059;-84
2023/09/16 00:32:29;;;;;;;10.85;9.95;;;;;;;;;;5041319;28;20044;-84
2023/09/16 00:34:55;;;;;;;9.52;8.82;;;;;;;;;;5058615;28;20048;-84
2023/09/16 00:37:21;;;;;;;10.75;9.82;;;;;;;;;;5058263;28;20045;-84
2023/09/16 00:39:47;;;;;;;13.43;12.23;;;;;;;;;;5058099;28;20055;-84
2023/09/16 00:42:13;;;;;;;11.48;10.65;;;;;;;;;;5057611;28;20542;-84
2023/09/16 00:44:39;;;;;;;11.77;10.90;;;;;;;;;;5057956;28;20139;-84
2023/09/16 00:47:06;;;;;;;11.10;10.20;;;;;;;;;;5075217;28;20052;-83
2023/09/16 00:49:32;;;;;;;11.25;10.35;;;;;;;;;;5040579;28;20135;-84
2023/09/16 00:51:58;;;;;;;14.35;13.15;;;;;;;;;;5040688;28;20435;-83
2023/09/16 00:54:24;;;;;;;11.02;10.23;;;;;;;;;;5041367;28;20052;-84
2023/09/16 00:56:50;;;;;;;11.73;10.82;;;;;;;;;;5040939;28;20090;-84
2023/09/16 00:59:20;;;;;;;11.98;11.07;;;;;;;;;;5040945;28;20044;-84
2023/09/16 01:01:49;;;;;;;11.27;10.27;;;;;;;;;;5057210;28;20511;-84
2023/09/16 01:04:16;;;;;;;11.75;10.85;;;;;;;;;;5041759;28;20502;-84
2023/09/16 01:06:43;;;;;;;12.13;11.13;;;;;;;;;;5057440;28;20507;-84
2023/09/16 01:09:10;;;;;;;10.98;10.18;;;;;;;;;;5024817;28;20053;-84
2023/09/16 01:11:38;;;;;;;11.52;10.57;;;;;;;;;;5023964;28;20048;-84
2023/09/16 01:14:05;;;;;;;13.10;11.93;;;;;;;;;;5040476;28;20556;-83
2023/09/16 01:16:34;;;;;;;13.75;12.68;;;;;;;;;;5041092;28;20101;-83
2023/09/16 01:19:06;;;;;;;11.60;10.70;;;;;;;;;;5057029;28;20070;-84
2023/09/16 01:21:32;;;;;;;13.02;12.02;;;;;;;;;;5057444;28;20041;-84
2023/09/16 01:24:17;;;;;;;14.50;13.10;;;;;;;;;;5057665;28;20066;-83
2023/09/16 01:26:43;;;;;;;12.32;11.35;;;;;;;;;;5040668;28;20111;-84
2023/09/16 01:29:10;;;;;;;12.98;11.95;;;;;;;;;;5041017;28;20182;-83
2023/09/16 01:31:36;;;;;;;12.57;11.38;;;;;;;;;;5057336;28;20044;-83
2023/09/16 01:34:05;;;;;;;13.77;12.70;;;;;;;;;;5056708;28;20048;-84
2023/09/16 01:36:34;;;;;;;14.48;13.25;;;;;;;;;;5057418;28;20045;-84
2023/09/16 01:39:08;;;;;;;15.48;13.98;;;;;;;;;;5057476;28;20055;-83
2023/09/16 01:41:34;;;;;;;13.70;12.43;;;;;;;;;;5040860;28;20538;-83
2023/09/16 01:44:02;;;;;;;12.98;11.77;;;;;;;;;;5057410;28;20055;-84
2023/09/16 01:46:28;;;;;;;14.88;13.63;;;;;;;;;;5063067;28;20056;-83
2023/09/16 01:48:54;;;;;;;12.73;11.60;;;;;;;;;;5077286;28;20063;-83
2023/09/16 01:51:20;;;;;;;13.65;12.63;;;;;;;;;;5076645;28;20105;-83
2023/09/16 01:53:46;;;;;;;15.43;14.15;;;;;;;;;;5077358;28;20083;-83
2023/09/16 01:56:12;;;;;;;13.90;12.52;;;;;;;;;;5077728;28;20052;-83
2023/09/16 01:58:39;;;;;;;15.57;14.18;;;;;;;;;;5077345;28;20098;-83
2023/09/16 02:01:08;;;;;;;16.65;13.35;;;;;;;;;;5060435;28;20131;-83
2023/09/16 02:03:34;;;;;;;14.73;13.52;;;;;;;;;;5076373;28;20040;-84
2023/09/16 02:06:00;;;;;;;14.95;13.85;;;;;;;;;;5077142;28;20050;-84
2023/09/16 02:08:26;;;;;;;16.48;15.10;;;;;;;;;;5077315;28;20074;-84
2023/09/16 02:10:52;;;;;;;15.77;14.38;;;;;;;;;;5076689;28;20044;-83
2023/09/16 02:13:18;;;;;;;15.15;13.80;;;;;;;;;;5076523;28;20052;-83
2023/09/16 02:15:45;;;;;;;14.98;13.60;;;;;;;;;;5076265;28;20048;-83
2023/09/16 02:18:12;;;;;;;17.77;16.08;;;;;;;;;;5076180;28;20069;-83
2023/09/16 02:20:38;;;;;;;15.43;14.23;;;;;;;;;;5076773;28;20500;-83
2023/09/16 02:23:05;;;;;;;16.35;14.88;;;;;;;;;;5076623;28;20119;-83
2023/09/16 02:25:35;;;;;;;15.85;14.55;;;;;;;;;;5047589;28;20048;-83
2023/09/16 02:28:01;;;;;;;14.20;12.98;;;;;;;;;;5080640;28;20089;-83
2023/09/16 02:30:27;;;;;;;15.18;13.43;;;;;;;;;;5063474;28;20054;-83
2023/09/16 02:32:53;;;;;;;16.80;15.07;;;;;;;;;;5079777;28;20044;-83
2023/09/16 02:35:19;;;;;;;13.55;12.35;;;;;;;;;;5080383;28;20044;-83
2023/09/16 02:37:46;;;;;;;16.05;14.75;;;;;;;;;;5063662;28;20047;-83
2023/09/16 02:40:12;;;;;;;16.45;15.05;;;;;;;;;;5080206;28;20048;-83
2023/09/16 02:42:38;;;;;;;15.70;14.30;;;;;;;;;;5063470;28;20480;-83
2023/09/16 02:45:04;;;;;;;14.95;13.60;;;;;;;;;;5080597;28;20036;-83
2023/09/16 02:47:31;;;;;;;15.80;14.40;;;;;;;;;;5063516;28;20060;-83
2023/09/16 02:49:57;;;;;;;15.52;14.10;;;;;;;;;;5080234;28;20082;-83
2023/09/16 02:52:23;;;;;;;20.60;18.73;;;;;;;;;;5080520;28;20395;-83
2023/09/16 02:54:49;;;;;;;15.30;14.00;;;;;;;;;;5079878;28;20063;-83
2023/09/16 02:57:15;;;;;;;16.83;15.30;;;;;;;;;;5063462;28;20040;-83
2023/09/16 02:59:41;;;;;;;16.70;15.25;;;;;;;;;;5062809;28;20533;-83
2023/09/16 03:02:07;;;;;;;16.58;15.27;;;;;;;;;;5062561;28;20072;-83
2023/09/16 03:04:33;;;;;;;17.70;16.30;;;;;;;;;;5063220;28;20083;-83
2023/09/16 03:06:59;;;;;;;18.50;17.00;;;;;;;;;;5063488;28;20048;-83
2023/09/16 03:09:25;;;;;;;18.65;17.08;;;;;;;;;;5063376;28;20054;-83
2023/09/16 03:11:51;;;;;;;17.02;15.63;;;;;;;;;;5063297;28;20428;-83
2023/09/16 03:14:17;;;;;;;17.45;15.98;;;;;;;;;;5046502;28;20044;-84
2023/09/16 03:16:45;;;;;;;19.10;17.30;;;;;;;;;;5097527;28;20094;-83
2023/09/16 03:19:13;;;;;;;18.02;16.63;;;;;;;;;;5046776;28;20055;-83
2023/09/16 03:21:39;;;;;;;18.70;17.10;;;;;;;;;;5079467;28;20079;-83
2023/09/16 03:24:06;;;;;;;19.63;17.92;;;;;;;;;;5079209;28;20045;-83
2023/09/16 03:26:32;;;;;;;18.45;16.92;;;;;;;;;;5079285;28;20051;-83
2023/09/16 03:28:58;;;;;;;18.17;16.52;;;;;;;;;;5062791;28;20040;-83
2023/09/16 03:31:24;;;;;;;19.40;17.75;;;;;;;;;;5079624;28;20044;-83
2023/09/16 03:33:50;;;;;;;18.85;17.30;;;;;;;;;;5062116;28;20048;-83
2023/09/16 03:36:16;;;;;;;18.35;16.85;;;;;;;;;;5061551;28;20074;-83
2023/09/16 03:38:47;;;;;;;19.27;17.45;;;;;;;;;;5062733;28;20079;-83
2023/09/16 03:41:13;;;;;;;21.42;19.63;;;;;;;;;;5079020;28;20140;-83
2023/09/16 03:43:39;;;;;;;19.90;18.30;;;;;;;;;;5062358;28;20040;-83
2023/09/16 03:46:05;;;;;;;17.65;16.15;;;;;;;;;;5061756;28;20496;-83
2023/09/16 03:48:32;;;;;;;19.92;18.33;;;;;;;;;;5078305;28;20052;-83
2023/09/16 03:50:58;;;;;;;20.73;19.05;;;;;;;;;;5062753;28;20052;-83
2023/09/16 03:53:25;;;;;;;21.17;19.55;;;;;;;;;;5061905;28;20040;-83
2023/09/16 03:55:52;;;;;;;21.40;19.45;;;;;;;;;;5079029;28;20052;-83
2023/09/16 03:58:19;;;;;;;20.25;18.55;;;;;;;;;;5096723;28;20472;-83
2023/09/16 04:00:45;;;;;;;19.50;18.02;;;;;;;;;;5062568;28;20048;-83
2023/09/16 04:03:11;;;;;;;19.83;18.02;;;;;;;;;;5078123;28;20067;-83
2023/09/16 04:05:37;;;;;;;19.33;17.73;;;;;;;;;;5078544;28;20553;-83
2023/09/16 04:08:04;;;;;;;21.25;19.45;;;;;;;;;;5078575;28;20399;-83
2023/09/16 04:10:30;;;;;;;18.80;17.08;;;;;;;;;;5061290;28;20040;-83
2023/09/16 04:12:56;;;;;;;18.92;17.33;;;;;;;;;;5078790;28;20054;-83
2023/09/16 04:15:22;;;;;;;17.48;16.05;;;;;;;;;;5061909;28;20048;-83
2023/09/16 04:17:51;;;;;;;20.73;19.02;;;;;;;;;;5078882;28;20069;-83
2023/09/16 04:20:19;;;;;;;21.98;19.98;;;;;;;;;;5078538;28;20044;-83
2023/09/16 04:22:46;;;;;;;19.75;17.95;;;;;;;;;;5077916;28;20040;-83
2023/09/16 04:25:12;;;;;;;18.35;16.77;;;;;;;;;;5078406;28;20048;-83
2023/09/16 04:27:38;;;;;;;19.95;18.35;;;;;;;;;;5077967;28;20073;-83
2023/09/16 04:30:05;;;;;;;19.80;18.25;;;;;;;;;;5077897;28;20036;-83
2023/09/16 04:32:31;;;;;;;19.95;18.15;;;;;;;;;;5077814;28;20052;-83
2023/09/16 04:34:58;;;;;;;19.50;18.00;;;;;;;;;;5077738;28;20044;-83
2023/09/16 04:37:24;;;;;;;19.27;17.42;;;;;;;;;;5060666;28;20143;-83
2023/09/16 04:39:50;;;;;;;18.58;16.88;;;;;;;;;;5060931;28;20126;-83
2023/09/16 04:42:16;;;;;;;18.00;16.60;;;;;;;;;;5078840;28;20431;-83
2023/09/16 04:44:44;;;;;;;18.92;17.52;;;;;;;;;;5044890;28;20434;-83
2023/09/16 04:47:10;;;;;;;19.88;18.27;;;;;;;;;;5077871;28;20056;-83
2023/09/16 04:49:36;;;;;;;18.02;16.65;;;;;;;;;;5077942;28;20462;-83
2023/09/16 04:52:04;;;;;;;20.48;18.77;;;;;;;;;;5061081;28;20455;-83
2023/09/16 04:54:35;;;;;;;17.77;16.48;;;;;;;;;;5060862;28;20488;-83
2023/09/16 04:57:02;;;;;;;21.02;19.25;;;;;;;;;;5060834;28;20044;-83
2023/09/16 04:59:32;;;;;;;20.15;18.45;;;;;;;;;;5077469;28;20040;-83
2023/09/16 05:01:58;;;;;;;22.30;20.55;;;;;;;;;;5077095;28;20548;-83
2023/09/16 05:04:24;;;;;;;20.02;18.20;;;;;;;;;;5077538;28;20047;-83
2023/09/16 05:06:50;;;;;;;18.40;17.00;;;;;;;;;;5077384;28;20052;-82
2023/09/16 05:09:17;;;;;;;19.58;18.08;;;;;;;;;;5061031;28;20464;-81
2023/09/16 05:11:43;;;;;;;20.75;18.95;;;;;;;;;;5078534;28;20055;-81
2023/09/16 05:14:10;;;;;;;17.75;16.35;;;;;;;;;;5078251;28;20079;-81
2023/09/16 05:16:36;;;;;;;18.63;17.23;;;;;;;;;;5077362;28;20122;-81
2023/09/16 05:19:02;;;;;;;19.15;17.55;;;;;;;;;;5060838;28;20392;-81
2023/09/16 05:21:28;;;;;;;19.17;17.67;;;;;;;;;;5077780;28;20476;-81
2023/09/16 05:23:54;;;;;;;18.48;17.08;;;;;;;;;;5076859;28;20040;-82
2023/09/16 05:26:20;;;;;;;19.73;18.17;;;;;;;;;;5077164;28;20490;-81
2023/09/16 05:28:46;;;;;;;17.63;16.35;;;;;;;;;;5077529;28;20123;-82
2023/09/16 05:31:13;;;;;;;16.73;15.40;;;;;;;;;;5077136;28;20055;-82
2023/09/16 05:33:40;;;;;;;19.58;17.98;;;;;;;;;;5076741;28;20055;-81
2023/09/16 05:36:06;;;;;;;19.05;17.33;;;;;;;;;;5060522;28;20071;-81
2023/09/16 05:38:32;;;;;;;20.17;18.48;;;;;;;;;;5077107;28;20096;-80
2023/09/16 05:40:59;;;;;;;20.65;18.85;;;;;;;;;;5077147;28;20091;-80
2023/09/16 05:43:25;;;;;;;25.02;22.63;;;;;;;;;;5059981;28;20119;-80
2023/09/16 05:45:51;;;;;;;19.67;18.20;;;;;;;;;;5060143;28;20044;-81
2023/09/16 05:48:18;;;;;;;20.05;18.45;;;;;;;;;;5060048;28;20059;-80
2023/09/16 05:50:44;;;;;;;21.00;19.30;;;;;;;;;;5076606;28;20052;-80
2023/09/16 05:53:11;;;;;;;20.50;18.90;;;;;;;;;;5076719;28;20052;-80
2023/09/16 05:55:40;;;;;;;21.33;19.52;;;;;;;;;;5076918;28;20047;-79
2023/09/16 05:58:11;;;;;;;25.52;23.42;;;;;;;;;;5077220;28;20396;-80
2023/09/16 06:00:37;;;;;;;20.98;19.15;;;;;;;;;;5099271;28;20059;-80
2023/09/16 06:03:04;;;;;;;20.05;18.45;;;;;;;;;;5080508;28;20400;-80
2023/09/16 06:05:30;;;;;;;23.85;21.90;;;;;;;;;;5080805;28;20048;-81
2023/09/16 06:07:56;;;;;;;24.40;22.10;;;;;;;;;;5064558;28;20079;-81
2023/09/16 06:10:22;;;;;;;20.25;18.55;;;;;;;;;;5080465;28;20127;-81
2023/09/16 06:12:48;;;;;;;19.00;17.50;;;;;;;;;;5080399;28;20051;-80
2023/09/16 06:15:14;;;;;;;20.73;19.13;;;;;;;;;;5080803;28;20472;-80
2023/09/16 06:17:41;;;;;;;20.33;18.63;;;;;;;;;;5080608;28;20085;-80
2023/09/16 06:20:07;;;;;;;20.92;19.23;;;;;;;;;;5064051;28;20037;-80
2023/09/16 06:22:33;;;;;;;21.30;19.55;;;;;;;;;;5080513;28;20039;-80
2023/09/16 06:24:59;;;;;;;22.65;20.90;;;;;;;;;;5098313;28;20492;-80
2023/09/16 06:27:25;;;;;;;21.70;19.90;;;;;;;;;;5080639;28;20051;-80
2023/09/16 06:29:52;;;;;;;21.80;20.10;;;;;;;;;;5080426;28;20082;-79
2023/09/16 06:32:19;;;;;;;23.08;21.17;;;;;;;;;;5080030;28;20081;-80
2023/09/16 06:34:45;;;;;;;26.85;24.52;;;;;;;;;;5063470;28;20052;-80
2023/09/16 06:37:11;;;;;;;23.27;21.40;;;;;;;;;;5080269;28;20043;-81
2023/09/16 06:39:37;;;;;;;23.00;21.00;;;;;;;;;;5097974;28;20373;-80
2023/09/16 06:42:07;;;;;;;21.92;19.95;;;;;;;;;;5063403;28;20130;-81
2023/09/16 06:44:33;;;;;;;20.58;19.08;;;;;;;;;;5080406;28;20480;-80
2023/09/16 06:46:59;;;;;;;22.73;20.58;;;;;;;;;;5080050;28;20042;-79
2023/09/16 06:49:25;;;;;;;20.33;18.45;;;;;;;;;;5059347;28;20049;-80
2023/09/16 06:51:51;;;;;;;24.02;21.90;;;;;;;;;;5059615;28;20473;-80
2023/09/16 06:54:17;;;;;;;21.15;19.52;;;;;;;;;;5059068;28;20123;-80
2023/09/16 06:56:43;;;;;;;22.23;20.42;;;;;;;;;;5059180;28;20040;-80
2023/09/16 06:59:09;;;;;;;21.48;19.85;;;;;;;;;;5059626;28;20045;-81
2023/09/16 07:01:35;;;;;;;19.60;18.08;;;;;;;;;;5059826;28;20079;-81
2023/09/16 07:04:01;;;;;;;22.35;20.60;;;;;;;;;;5059467;28;20084;-80
2023/09/16 07:06:27;;;;;;;21.80;20.10;;;;;;;;;;5042624;28;20052;-82
2023/09/16 07:08:54;;;;;;;22.63;20.42;;;;;;;;;;5043196;28;20067;-81
2023/09/16 07:11:20;;;;;;;25.55;23.35;;;;;;;;;;5060706;28;20079;-82
2023/09/16 07:13:46;;;;;;;23.33;21.42;;;;;;;;;;5077561;28;20045;-82
2023/09/16 07:16:13;;;;;;;23.73;21.73;;;;;;;;;;5059536;28;20047;-82
2023/09/16 07:18:39;;;;;;;22.52;20.83;;;;;;;;;;5059564;28;20067;-81
2023/09/16 07:21:05;;;;;;;25.85;23.55;;;;;;;;;;5042445;28;20059;-82
2023/09/16 07:23:31;;;;;;;24.90;22.70;;;;;;;;;;5042442;28;20495;-82
2023/09/16 07:25:58;;;;;;;24.05;22.05;;;;;;;;;;5059649;28;20054;-82
2023/09/16 07:28:25;;;;;;;22.67;20.77;;;;;;;;;;5059668;28;20048;-82
2023/09/16 07:30:57;;;;;;;24.98;22.88;;;;;;;;;;5028092;28;20135;-81
2023/09/16 07:33:23;;;;;;;25.27;23.20;;;;;;;;;;5076361;28;20044;-82
2023/09/16 07:35:51;;;;;;;26.17;23.85;;;;;;;;;;5059784;28;20051;-82
2023/09/16 07:38:17;;;;;;;24.83;22.85;;;;;;;;;;5059094;28;20074;-82
2023/09/16 07:40:43;;;;;;;26.35;23.95;;;;;;;;;;5059082;28;20135;-82
2023/09/16 07:43:11;;;;;;;25.48;23.27;;;;;;;;;;5076391;28;20550;-81
2023/09/16 07:45:38;;;;;;;25.58;23.23;;;;;;;;;;5058627;28;20044;-82
2023/09/16 07:48:07;;;;;;;25.77;23.67;;;;;;;;;;5067870;28;20484;-82
2023/09/16 07:50:33;;;;;;;24.02;22.13;;;;;;;;;;5079034;28;20047;-81
2023/09/16 07:52:59;;;;;;;26.92;24.67;;;;;;;;;;5078567;28;20054;-82
2023/09/16 07:55:25;;;;;;;24.85;22.40;;;;;;;;;;5096865;28;20142;-82
2023/09/16 07:57:51;;;;;;;20.20;18.58;;;;;;;;;;5078707;28;20055;-82
2023/09/16 08:00:17;;;;;;;22.63;20.63;;;;;;;;;;5078486;28;20479;-82
2023/09/16 08:02:43;;;;;;;20.90;19.10;;;;;;;;;;5096203;28;20044;-82
2023/09/16 08:05:09;;;;;;;19.63;18.02;;;;;;;;;;5062023;28;20048;-82
2023/09/16 08:07:36;;;;;;;19.67;18.08;;;;;;;;;;5061759;28;20048;-82
2023/09/16 08:10:02;;;;;;;17.25;15.75;;;;;;;;;;5061623;28;20066;-82
2023/09/16 08:12:28;;;;;;;20.15;18.45;;;;;;;;;;5096684;28;20040;-82
2023/09/16 08:14:55;;;;;;;18.30;16.80;;;;;;;;;;5078466;28;20083;-82
2023/09/16 08:17:21;;;;;;;17.13;15.55;;;;;;;;;;5078042;28;20048;-82
2023/09/16 08:19:47;;;;;;;20.63;18.55;;;;;;;;;;5061890;28;20047;-82
2023/09/16 08:22:13;;;;;;;18.63;17.02;;;;;;;;;;5077499;28;20040;-82
2023/09/16 08:24:39;;;;;;;18.77;17.20;;;;;;;;;;5061590;28;20116;-82
2023/09/16 08:27:05;;;;;;;18.98;17.50;;;;;;;;;;5045094;28;20044;-82
2023/09/16 08:29:31;;;;;;;18.40;16.80;;;;;;;;;;5078089;28;20079;-82
2023/09/16 08:31:57;;;;;;;17.50;16.10;;;;;;;;;;5077865;28;20052;-82
2023/09/16 08:34:23;;;;;;;17.80;16.40;;;;;;;;;;5043972;28;20048;-82
2023/09/16 08:36:49;;;;;;;16.80;15.27;;;;;;;;;;5077617;28;20044;-82
2023/09/16 08:39:15;;;;;;;15.68;14.27;;;;;;;;;;5078673;28;20039;-82
2023/09/16 08:41:51;;;;;;;16.40;14.90;;;;;;;;;;5077880;28;20050;-83
2023/09/16 08:44:19;;;;;;;16.52;15.25;;;;;;;;;;5077751;28;20460;-82
2023/09/16 08:46:51;;;;;;;16.40;14.98;;;;;;;;;;5077727;28;20044;-83
2023/09/16 08:49:18;;;;;;;15.95;14.43;;;;;;;;;;5077121;28;20484;-83
2023/09/16 08:51:46;;;;;;;15.15;13.90;;;;;;;;;;5078103;28;20063;-82
2023/09/16 08:54:13;;;;;;;15.50;14.15;;;;;;;;;;5077760;28;20112;-82
2023/09/16 08:56:40;;;;;;;15.15;13.85;;;;;;;;;;5077778;28;20055;-82
2023/09/16 08:59:06;;;;;;;15.80;14.45;;;;;;;;;;5060506;28;20127;-82
2023/09/16 09:01:33;;;;;;;14.63;13.25;;;;;;;;;;5077395;28;20044;-82
2023/09/16 09:04:00;;;;;;;15.82;14.60;;;;;;;;;;5094861;28;20048;-82
2023/09/16 09:06:27;;;;;;;15.85;14.55;;;;;;;;;;5060423;28;20052;-82
2023/09/16 09:08:53;;;;;;;14.63;13.40;;;;;;;;;;5077465;28;20097;-82
2023/09/16 09:11:20;;;;;;;15.75;14.55;;;;;;;;;;5077962;28;20070;-83
2023/09/16 09:13:46;;;;;;;14.85;13.43;;;;;;;;;;5095603;28;20036;-83
2023/09/16 09:16:15;;;;;;;15.43;14.02;;;;;;;;;;5077475;28;20468;-83
2023/09/16 09:18:42;;;;;;;14.10;12.82;;;;;;;;;;5077105;28;20498;-83
2023/09/16 09:21:08;;;;;;;14.70;13.50;;;;;;;;;;5077242;28;20093;-83
2023/09/16 09:23:34;;;;;;;13.82;12.65;;;;;;;;;;5076768;28;20036;-83
2023/09/16 09:26:00;;;;;;;13.90;12.80;;;;;;;;;;5077604;28;20044;-83
2023/09/16 09:28:29;;;;;;;13.80;12.73;;;;;;;;;;5077602;28;20051;-83
2023/09/16 09:30:58;;;;;;;13.75;12.57;;;;;;;;;;5077589;28;20051;-83
2023/09/16 09:33:26;;;;;;;13.10;12.00;;;;;;;;;;5077861;28;20130;-83
2023/09/16 09:36:09;;;;;;;12.52;11.63;;;;;;;;;;5081787;28;20043;-83
2023/09/16 09:38:38;;;;;;;11.70;10.80;;;;;;;;;;5081542;28;20127;-83
2023/09/16 09:41:04;;;;;;;12.43;11.23;;;;;;;;;;5081533;28;20074;-83
2023/09/16 09:43:30;;;;;;;11.00;10.20;;;;;;;;;;5081497;28;20134;-82
2023/09/16 09:45:56;;;;;;;10.73;9.93;;;;;;;;;;5081618;28;20048;-83
2023/09/16 09:48:22;;;;;;;10.63;9.85;;;;;;;;;;5081192;28;20500;-83
2023/09/16 09:50:49;;;;;;;10.00;9.20;;;;;;;;;;5081384;28;20044;-83
2023/09/16 09:53:15;;;;;;;9.48;8.77;;;;;;;;;;5081179;28;20052;-83
2023/09/16 09:55:42;;;;;;;9.45;8.55;;;;;;;;;;5081176;28;20048;-83
2023/09/16 09:58:09;;;;;;;9.85;8.93;;;;;;;;;;5080356;28;20051;-83
2023/09/16 10:00:35;;;;;;;8.73;8.07;;;;;;;;;;5081043;28;20120;-83
2023/09/16 10:03:01;;;;;;;7.50;6.90;;;;;;;;;;5080577;28;20036;-83
2023/09/16 10:05:27;;;;;;;6.45;6.03;;;;;;;;;;5047892;28;20101;-83
2023/09/16 10:07:54;;;;;;;7.20;6.50;;;;;;;;;;5080919;28;20523;-83
2023/09/16 10:10:21;;;;;;;7.35;6.70;;;;;;;;;;5080842;28;20048;-83
2023/09/16 10:12:48;;;;;;;6.82;6.32;;;;;;;;;;5063560;28;20093;-83
2023/09/16 10:15:15;;;;;;;6.93;6.40;;;;;;;;;;5080957;28;20044;-83
2023/09/16 10:17:42;;;;;;;7.78;7.13;;;;;;;;;;5080324;28;20044;-83
2023/09/16 10:20:10;;;;;;;7.97;7.43;;;;;;;;;;5080591;28;20079;-83
2023/09/16 10:22:37;;;;;;;7.95;7.45;;;;;;;;;;5080417;28;20531;-83
2023/09/16 10:25:03;;;;;;;7.40;6.90;;;;;;;;;;5081202;28;20051;-83
2023/09/16 10:27:32;;;;;;;6.80;6.35;;;;;;;;;;5080421;28;20089;-83
2023/09/16 10:30:00;;;;;;;8.23;7.63;;;;;;;;;;5081342;28;20079;-84
2023/09/16 10:32:26;;;;;;;6.38;5.82;;;;;;;;;;5080096;28;20040;-83
2023/09/16 10:34:53;;;;;;;7.00;6.60;;;;;;;;;;5063855;28;20048;-84
2023/09/16 10:37:19;;;;;;;7.38;6.80;;;;;;;;;;5080347;28;20123;-83
2023/09/16 10:39:49;;;;;;;6.03;5.72;;;;;;;;;;5092252;28;20047;-82
2023/09/16 10:42:16;;;;;;;5.68;5.03;;;;;;;;;;5060806;28;20044;-84
2023/09/16 10:44:43;;;;;;;4.95;4.45;;;;;;;;;;5059421;28;20090;-83
2023/09/16 10:47:09;;;;;;;4.35;4.05;;;;;;;;;;5060283;28;20435;-83
2023/09/16 10:49:36;;;;;;;6.72;6.07;;;;;;;;;;5059538;28;20052;-83
2023/09/16 10:52:09;;;;;;;6.10;5.75;;;;;;;;;;5060295;28;20105;-83
2023/09/16 10:55:10;;;;;;;5.78;4.55;;;;;;;;;;5060360;28;20052;-83
2023/09/16 10:58:06;;;;;;;4.45;4.18;;;;;;;;;;5007236;28;20061;-82
2023/09/16 11:00:37;;;;;;;4.10;3.80;;;;;;;;;;5065916;28;20427;-83
2023/09/16 11:03:05;;;;;;;5.10;4.78;;;;;;;;;;5079049;28;20048;-82
2023/09/16 11:05:31;;;;;;;3.55;2.88;;;;;;;;;;5080112;28;20091;-82
2023/09/16 11:07:57;;;;;;;4.22;2.33;;;;;;;;;;5097455;28;20052;-82
2023/09/16 11:10:23;;;;;;;3.47;2.78;;;;;;;;;;5063043;28;20048;-82
2023/09/16 11:12:50;;;;;;;4.30;4.00;;;;;;;;;;5079992;28;20108;-82
2023/09/16 11:15:17;;;;;;;2.25;2.15;;;;;;;;;;5097655;28;20044;-82
2023/09/16 11:17:43;;;;;;;2.75;1.55;;;;;;;;;;5079315;28;20052;-82
2023/09/16 11:20:13;;;;;;;1.83;1.73;;;;;;;;;;5079608;28;20076;-83
2023/09/16 11:22:46;;;;;;;1.75;1.65;;;;;;;;;;5079116;28;20044;-83
2023/09/16 11:25:13;;;;;;;1.88;1.77;;;;;;;;;;5079562;28;20052;-83
2023/09/16 11:27:40;;;;;;;2.80;1.70;;;;;;;;;;5097877;28;20122;-83
2023/09/16 11:30:13;;;;;;;1.77;1.38;;;;;;;;;;5097590;28;20400;-83
2023/09/16 11:32:40;;;;;;;2.33;1.20;;;;;;;;;;5079003;28;20070;-82
2023/09/16 11:35:06;;;;;;;1.73;1.63;;;;;;;;;;5079016;28;20052;-81
2023/09/16 11:37:34;;;;;;;3.20;1.58;;;;;;;;;;5062499;28;20126;-83
2023/09/16 11:40:01;;;;;;;2.10;1.75;;;;;;;;;;5079209;28;20044;-83
2023/09/16 11:42:27;;;;;;;1.45;1.35;;;;;;;;;;5078889;28;20044;-83
2023/09/16 11:44:55;;;;;;;3.83;1.27;;;;;;;;;;5062391;28;20083;-83
2023/09/16 11:47:21;;;;;;;2.35;1.92;;;;;;;;;;5077800;28;20052;-83
2023/09/16 11:49:49;;;;;;;2.65;2.17;;;;;;;;;;5059157;28;20056;-84
2023/09/16 11:52:16;;;;;;;3.10;1.90;;;;;;;;;;5076222;28;20551;-84
2023/09/16 11:54:42;;;;;;;2.30;2.17;;;;;;;;;;5058988;28;20088;-84
2023/09/16 11:57:08;;;;;;;3.75;1.67;;;;;;;;;;5021398;28;20505;-84
2023/09/16 11:59:34;;;;;;;3.58;2.15;;;;;;;;;;5038375;28;20045;-84
2023/09/16 12:02:01;;;;;;;1.63;1.52;;;;;;;;;;5039249;28;20475;-83
2023/09/16 12:04:27;;;;;;;3.22;1.70;;;;;;;;;;5056003;28;20049;-83
2023/09/16 12:06:54;;;;;;;2.55;1.52;;;;;;;;;;5022152;28;20052;-83
2023/09/16 12:09:22;;;;;;;1.63;1.15;;;;;;;;;;5056427;28;20136;-83
2023/09/16 12:11:50;;;;;;;2.35;1.40;;;;;;;;;;5039135;28;20261;-83
2023/09/16 12:14:16;;;;;;;1.80;1.52;;;;;;;;;;5038788;28;20383;-83
2023/09/16 12:16:42;;;;;;;1.10;0.88;;;;;;;;;;5038120;28;20056;-83
2023/09/16 12:19:08;;;;;;;3.17;1.40;;;;;;;;;;5038499;28;20400;-83
2023/09/16 12:21:35;;;;;;;1.33;0.77;;;;;;;;;;5038518;28;20393;-83
2023/09/16 12:24:01;;;;;;;2.45;1.02;;;;;;;;;;5037574;28;20049;-83
2023/09/16 12:26:27;;;;;;;1.77;0.65;;;;;;;;;;5038488;28;20546;-83
2023/09/16 12:28:53;;;;;;;2.90;1.00;;;;;;;;;;5021555;28;20048;-83
2023/09/16 12:31:23;;;;;;;2.20;0.93;;;;;;;;;;5038108;28;20098;-83
2023/09/16 12:33:53;;;;;;;2.65;0.90;;;;;;;;;;5038116;28;20044;-84
2023/09/16 12:36:29;;;;;;;5.13;0.77;;;;;;;;;;5038178;28;20075;-83
2023/09/16 12:38:56;;;;;;;2.33;0.70;;;;;;;;;;5021265;28;20056;-83
2023/09/16 12:41:25;;;;;;;1.67;1.13;;;;;;;;;;5038013;28;20127;-83
2023/09/16 12:43:51;;;;;;;1.02;0.93;;;;;;;;;;5021824;28;20045;-83
2023/09/16 12:46:20;;;;;;;2.22;1.00;;;;;;;;;;5037746;28;20041;-83
2023/09/16 12:48:50;;;;;;;1.15;1.05;;;;;;;;;;5037230;28;20490;-83
2023/09/16 12:51:20;;;;;;;2.65;1.05;;;;;;;;;;5037938;28;20041;-83
2023/09/16 12:53:47;;;;;;;1.25;0.93;;;;;;;;;;5037879;28;20056;-83
2023/09/16 12:56:19;;;;;;;1.63;0.80;;;;;;;;;;5037163;28;20148;-83
2023/09/16 12:58:48;;;;;;;4.50;1.20;;;;;;;;;;5037342;28;20041;-83
2023/09/16 13:01:18;;;;;;;2.33;1.00;;;;;;;;;;5037703;28;20041;-83
2023/09/16 13:03:44;;;;;;;3.63;1.02;;;;;;;;;;5020786;28;20041;-83
2023/09/16 13:06:11;;;;;;;2.17;1.23;;;;;;;;;;5021281;28;20048;-84
2023/09/16 13:08:37;;;;;;;1.38;1.15;;;;;;;;;;5037571;28;20045;-83
2023/09/16 13:11:03;;;;;;;2.88;1.05;;;;;;;;;;5037605;28;20037;-84
2023/09/16 13:13:30;;;;;;;1.80;0.82;;;;;;;;;;5037412;28;20485;-83
2023/09/16 13:16:01;;;;;;;1.50;1.15;;;;;;;;;;5037590;28;20048;-84
2023/09/16 13:18:27;;;;;;;3.20;0.90;;;;;;;;;;5037485;28;20481;-84
2023/09/16 13:20:54;;;;;;;4.78;0.98;;;;;;;;;;5055359;28;20049;-84
2023/09/16 13:23:24;;;;;;;1.98;0.95;;;;;;;;;;5020773;28;20049;-83
2023/09/16 13:25:51;;;;;;;0.77;0.75;;;;;;;;;;5021312;28;20127;-83
2023/09/16 13:28:18;;;;;;;1.10;1.00;;;;;;;;;;5037437;28;20045;-83
2023/09/16 13:30:48;;;;;;;2.20;0.98;;;;;;;;;;5036920;28;20049;-83
2023/09/16 13:33:14;;;;;;;1.25;0.80;;;;;;;;;;5037553;28;20057;-83
2023/09/16 13:35:44;;;;;;;1.83;0.73;;;;;;;;;;5054833;28;20106;-83
2023/09/16 13:38:11;;;;;;;0.70;0.60;;;;;;;;;;5037190;28;20053;-83
2023/09/16 13:40:37;;;;;;;1.67;0.85;;;;;;;;;;5037408;28;20485;-83
2023/09/16 13:43:04;;;;;;;0.98;0.77;;;;;;;;;;5054706;28;20045;-83
2023/09/16 13:45:30;;;;;;;0.90;0.80;;;;;;;;;;5037265;28;20047;-83
2023/09/16 13:48:13;;;;;;;1.02;0.90;;;;;;;;;;5036791;28;20059;-83
2023/09/16 13:50:41;;;;;;;1.42;1.15;;;;;;;;;;5037062;28;20106;-83
2023/09/16 13:53:07;;;;;;;1.10;0.98;;;;;;;;;;5037636;28;20095;-83
2023/09/16 13:55:33;;;;;;;2.25;1.17;;;;;;;;;;5036790;28;20060;-83
2023/09/16 13:57:59;;;;;;;1.40;0.65;;;;;;;;;;5036970;28;20389;-83
2023/09/16 14:00:26;;;;;;;1.23;0.60;;;;;;;;;;5036533;28;20485;-83
2023/09/16 14:02:52;;;;;;;1.45;0.80;;;;;;;;;;5020085;28;20151;-83
2023/09/16 14:05:18;;;;;;;1.77;1.10;;;;;;;;;;5054547;28;20045;-83
2023/09/16 14:07:44;;;;;;;1.65;0.77;;;;;;;;;;5037407;28;20439;-83
2023/09/16 14:10:10;;;;;;;1.90;0.90;;;;;;;;;;5020663;28;20045;-83
2023/09/16 14:12:36;;;;;;;1.13;1.02;;;;;;;;;;5037065;28;20048;-83
2023/09/16 14:15:03;;;;;;;2.45;0.82;;;;;;;;;;5020656;28;20072;-83
2023/09/16 14:17:29;;;;;;;1.08;0.98;;;;;;;;;;5036486;28;20053;-83
2023/09/16 14:19:55;;;;;;;1.38;1.17;;;;;;;;;;5038243;28;20477;-83
2023/09/16 14:22:21;;;;;;;0.75;0.75;;;;;;;;;;5040670;28;20048;-83
2023/09/16 14:24:47;;;;;;;1.85;1.00;;;;;;;;;;5023878;28;20084;-83